Time;durP1;ratioP1;P1;durP2;ratioP2;P2;SDS_P1;SDS_P2;PMS_P1;PMS_P2;Temp;Humidity;BMP_temperature;BMP_pressure;BME280_temperature;BME280_humidity;BME280_pressure;Samples;Min_cycle;Max_cycle;Signal;HPM_P1;HPM_P2
2021/05/21 00:03:02;;;;;;;1.70;1.60;;;11.40;82.90;;;;;;6274421;28;20481;-60
2021/05/21 00:06:05;;;;;;;1.13;1.03;;;11.40;83.10;;;;;;6274265;28;20478;-59
2021/05/21 00:09:07;;;;;;;1.73;1.20;;;11.30;83.70;;;;;;6273807;28;20473;-58
2021/05/21 00:12:10;;;;;;;1.80;0.97;;;11.40;84.10;;;;;;6274132;28;20497;-59
2021/05/21 00:15:14;;;;;;;1.10;1.00;;;11.40;84.10;;;;;;6273983;28;20978;-61
2021/05/21 00:18:17;;;;;;;1.37;1.27;;;11.40;84.70;;;;;;6299593;28;20511;-60
2021/05/21 00:21:20;;;;;;;1.57;0.90;;;11.40;84.90;;;;;;6300500;28;20484;-59
2021/05/21 00:24:23;;;;;;;1.50;1.20;;;11.40;85.50;;;;;;6300532;28;20591;-59
2021/05/21 00:27:26;;;;;;;1.47;1.37;;;11.30;85.30;;;;;;6300359;28;20787;-59
2021/05/21 00:30:29;;;;;;;1.33;1.23;;;11.30;84.90;;;;;;6295705;28;20473;-60
2021/05/21 00:33:32;;;;;;;1.07;0.97;;;11.30;84.90;;;;;;6299985;28;20469;-60
2021/05/21 00:36:35;;;;;;;1.53;0.90;;;11.30;85.40;;;;;;6300061;28;20473;-59
2021/05/21 00:39:38;;;;;;;1.07;1.00;;;11.20;84.80;;;;;;6299943;28;20973;-60
2021/05/21 00:42:40;;;;;;;0.97;0.87;;;11.20;86.10;;;;;;6299960;28;20469;-60
2021/05/21 00:45:44;;;;;;;1.50;1.40;;;11.10;86.20;;;;;;6299878;28;20476;-60
2021/05/21 00:48:47;;;;;;;0.70;0.70;;;11.10;86.70;;;;;;6299906;28;20488;-59
2021/05/21 00:51:50;;;;;;;1.13;0.90;;;11.00;86.90;;;;;;6298939;28;20473;-59
2021/05/21 00:54:53;;;;;;;2.30;1.10;;;11.00;87.30;;;;;;6298693;28;20956;-59
2021/05/21 00:57:56;;;;;;;1.60;1.27;;;11.00;87.40;;;;;;6298962;28;21018;-59
2021/05/21 01:00:59;;;;;;;1.73;1.53;;;10.90;87.90;;;;;;6298085;28;20805;-59
2021/05/21 01:04:03;;;;;;;2.10;1.83;;;10.90;88.20;;;;;;6298376;28;20960;-59
2021/05/21 01:07:07;;;;;;;2.90;1.80;;;10.80;88.50;;;;;;6298565;28;20472;-60
2021/05/21 01:10:10;;;;;;;1.67;1.50;;;10.80;88.20;;;;;;6298731;28;20484;-59
2021/05/21 01:13:13;;;;;;;3.33;1.70;;;10.70;88.30;;;;;;6298298;28;20465;-59
2021/05/21 01:16:16;;;;;;;2.13;1.77;;;10.70;88.30;;;;;;6296498;28;20470;-59
2021/05/21 01:19:20;;;;;;;1.10;1.00;;;10.70;88.60;;;;;;6298058;28;20470;-60
2021/05/21 01:22:23;;;;;;;1.30;1.20;;;10.70;88.70;;;;;;6296389;28;20948;-60
2021/05/21 01:25:28;;;;;;;3.03;1.20;;;10.70;88.50;;;;;;6303227;28;20475;-60
2021/05/21 01:28:31;;;;;;;1.37;1.27;;;10.70;88.80;;;;;;6296914;28;20469;-59
2021/05/21 01:31:34;;;;;;;1.63;1.10;;;10.60;89.30;;;;;;6295898;28;20959;-60
2021/05/21 01:34:39;;;;;;;0.93;0.80;;;10.70;89.60;;;;;;6297104;28;20461;-59
2021/05/21 01:37:43;;;;;;;0.70;0.70;;;10.60;89.40;;;;;;6282301;28;20973;-60
2021/05/21 01:40:50;;;;;;;1.07;1.07;;;10.60;89.30;;;;;;6297347;28;20473;-59
2021/05/21 01:43:55;;;;;;;1.03;0.93;;;10.60;89.80;;;;;;6298407;28;20907;-59
2021/05/21 01:46:58;;;;;;;1.00;1.00;;;10.60;90.20;;;;;;6296332;28;20479;-59
2021/05/21 01:50:01;;;;;;;1.43;1.33;;;10.60;90.00;;;;;;6298779;28;20453;-59
2021/05/21 01:53:06;;;;;;;1.10;1.00;;;10.50;90.20;;;;;;6298397;28;20436;-59
2021/05/21 01:56:09;;;;;;;1.20;1.10;;;10.50;90.20;;;;;;6298688;28;20430;-59
2021/05/21 01:59:12;;;;;;;0.97;0.97;;;10.40;90.40;;;;;;6298401;28;20457;-59
2021/05/21 02:02:15;;;;;;;0.93;0.87;;;10.30;90.40;;;;;;6298722;28;20452;-59
2021/05/21 02:05:17;;;;;;;2.10;1.00;;;10.30;90.30;;;;;;6298852;28;20469;-60
2021/05/21 02:08:23;;;;;;;4.00;0.80;;;10.30;90.70;;;;;;6299033;28;20461;-59
2021/05/21 02:11:26;;;;;;;0.73;0.73;;;10.20;90.80;;;;;;6298600;28;20469;-59
2021/05/21 02:14:29;;;;;;;0.93;0.93;;;10.30;90.90;;;;;;6300160;28;20968;-60
2021/05/21 02:17:32;;;;;;;1.10;1.00;;;10.20;90.80;;;;;;6303173;28;20487;-59
2021/05/21 02:20:35;;;;;;;1.37;1.23;;;10.10;91.00;;;;;;6303403;28;20794;-60
2021/05/21 02:23:39;;;;;;;1.93;1.50;;;10.10;91.30;;;;;;6305964;28;20481;-59
2021/05/21 02:26:42;;;;;;;1.57;1.20;;;10.10;91.30;;;;;;6328308;28;20472;-60
2021/05/21 02:29:44;;;;;;;1.40;1.07;;;10.20;91.40;;;;;;6328530;28;20472;-59
2021/05/21 02:32:47;;;;;;;1.00;0.90;;;10.10;91.10;;;;;;6328346;28;20472;-60
2021/05/21 02:35:50;;;;;;;1.13;1.03;;;10.10;91.20;;;;;;6322844;28;20473;-60
2021/05/21 02:38:54;;;;;;;1.20;1.10;;;10.00;91.40;;;;;;6297364;28;20953;-60
2021/05/21 02:41:58;;;;;;;0.80;0.80;;;9.90;92.20;;;;;;6297699;28;20518;-60
2021/05/21 02:45:01;;;;;;;1.43;1.13;;;9.80;92.30;;;;;;6302216;28;20460;-60
2021/05/21 02:48:05;;;;;;;0.93;0.77;;;9.80;92.60;;;;;;6302635;28;20473;-59
2021/05/21 02:51:08;;;;;;;1.00;1.00;;;9.70;92.70;;;;;;6302634;28;21094;-60
2021/05/21 02:54:12;;;;;;;1.43;1.00;;;9.80;92.90;;;;;;6302786;28;20526;-60
2021/05/21 02:57:14;;;;;;;1.17;1.07;;;9.80;92.90;;;;;;6302714;28;20469;-59
2021/05/21 03:00:19;;;;;;;1.33;1.23;;;9.90;93.10;;;;;;6302253;28;20473;-60
2021/05/21 03:03:21;;;;;;;1.67;1.10;;;10.00;92.60;;;;;;6302440;28;20815;-60
2021/05/21 03:06:24;;;;;;;3.47;1.53;;;10.00;92.60;;;;;;6302344;28;20473;-60
2021/05/21 03:09:28;;;;;;;2.77;1.43;;;10.00;92.60;;;;;;6302607;28;20548;-60
2021/05/21 03:12:31;;;;;;;2.70;1.17;;;9.90;93.10;;;;;;6302758;28;20977;-59
2021/05/21 03:15:34;;;;;;;1.27;1.00;;;9.90;93.20;;;;;;6302536;28;20472;-59
2021/05/21 03:18:37;;;;;;;1.20;1.07;;;10.00;92.80;;;;;;6302632;28;20484;-60
2021/05/21 03:21:39;;;;;;;2.30;1.13;;;9.90;93.30;;;;;;6302398;28;20469;-60
2021/05/21 03:24:43;;;;;;;4.67;1.63;;;9.80;93.40;;;;;;6313749;28;20563;-60
2021/05/21 03:27:46;;;;;;;3.73;1.83;;;9.80;93.60;;;;;;6302468;28;20465;-60
2021/05/21 03:30:49;;;;;;;1.33;1.23;;;9.80;93.70;;;;;;6301921;28;20469;-59
2021/05/21 03:33:52;;;;;;;2.17;1.97;;;9.80;93.60;;;;;;6301766;28;20827;-60
2021/05/21 03:36:55;;;;;;;1.90;1.70;;;9.70;93.70;;;;;;6301744;28;20483;-60
2021/05/21 03:39:58;;;;;;;1.60;1.10;;;9.70;93.70;;;;;;6301423;28;20469;-60
2021/05/21 03:43:01;;;;;;;0.90;0.90;;;9.70;93.90;;;;;;6301416;28;20488;-60
2021/05/21 03:46:04;;;;;;;1.90;1.20;;;9.60;94.00;;;;;;6287318;28;20487;-60
2021/05/21 03:49:07;;;;;;;2.43;1.20;;;9.70;94.00;;;;;;6301309;28;20484;-60
2021/05/21 03:52:10;;;;;;;1.13;1.03;;;9.80;94.10;;;;;;6301263;28;20483;-59
2021/05/21 03:55:14;;;;;;;1.40;1.30;;;9.80;94.10;;;;;;6301340;28;20839;-60
2021/05/21 03:58:17;;;;;;;1.40;1.27;;;9.90;94.20;;;;;;6301100;28;21003;-60
2021/05/21 04:01:20;;;;;;;1.30;1.20;;;9.90;94.10;;;;;;6298356;28;20969;-60
2021/05/21 04:04:23;;;;;;;2.30;1.87;;;10.00;93.50;;;;;;6300734;28;20477;-61
2021/05/21 04:07:26;;;;;;;2.33;1.53;;;10.10;93.30;;;;;;6300869;28;20503;-61
2021/05/21 04:10:32;;;;;;;1.50;1.40;;;10.20;93.30;;;;;;6300695;28;20623;-60
2021/05/21 04:13:34;;;;;;;1.93;1.83;;;10.40;93.00;;;;;;6300774;28;20473;-60
2021/05/21 04:16:37;;;;;;;3.77;1.67;;;10.40;92.50;;;;;;6300452;28;20473;-61
2021/05/21 04:19:40;;;;;;;2.80;1.80;;;10.50;92.70;;;;;;6300542;28;20484;-60
2021/05/21 04:22:42;;;;;;;2.00;1.87;;;10.60;92.50;;;;;;6300493;28;20488;-60
2021/05/21 04:25:48;;;;;;;1.83;1.73;;;10.70;92.50;;;;;;6313635;28;20488;-60
2021/05/21 04:28:51;;;;;;;2.27;2.10;;;10.80;92.50;;;;;;6300447;28;20450;-59
2021/05/21 04:31:53;;;;;;;2.20;1.60;;;10.80;92.20;;;;;;6300339;28;20465;-59
2021/05/21 04:34:56;;;;;;;2.17;1.60;;;10.90;92.20;;;;;;6300282;28;20790;-59
2021/05/21 04:37:59;;;;;;;4.00;2.17;;;10.90;92.10;;;;;;6300056;28;20449;-60
2021/05/21 04:41:04;;;;;;;2.10;1.97;;;11.00;91.90;;;;;;6300174;28;20472;-59
2021/05/21 04:44:07;;;;;;;3.63;2.50;;;11.10;91.80;;;;;;6299893;28;20445;-61
2021/05/21 04:47:10;;;;;;;3.17;2.13;;;11.20;91.90;;;;;;6286047;28;20487;-60
2021/05/21 04:50:12;;;;;;;3.90;2.50;;;11.30;91.70;;;;;;6299895;28;20475;-60
2021/05/21 04:53:15;;;;;;;2.50;2.30;;;11.40;91.70;;;;;;6299830;28;20479;-59
2021/05/21 04:56:19;;;;;;;3.23;2.93;;;11.60;91.40;;;;;;6299756;28;20775;-59
2021/05/21 04:59:22;;;;;;;4.80;1.97;;;11.80;91.10;;;;;;6299702;28;20475;-59
2021/05/21 05:02:25;;;;;;;3.97;2.10;;;11.90;90.90;;;;;;6299800;28;20465;-60
2021/05/21 05:05:29;;;;;;;3.60;1.93;;;12.00;90.70;;;;;;6299794;28;20596;-60
2021/05/21 05:08:31;;;;;;;4.40;1.80;;;12.20;90.60;;;;;;6299462;28;20483;-59
2021/05/21 05:11:37;;;;;;;2.40;1.30;;;12.40;90.50;;;;;;6299551;28;20480;-59
2021/05/21 05:14:40;;;;;;;4.03;1.70;;;12.50;90.20;;;;;;6299136;28;20807;-60
2021/05/21 05:17:43;;;;;;;4.73;1.30;;;12.60;89.10;;;;;;6299153;28;20816;-59
2021/05/21 05:20:46;;;;;;;1.73;1.50;;;12.70;88.50;;;;;;6299190;28;20469;-60
2021/05/21 05:23:50;;;;;;;3.70;1.60;;;13.00;88.70;;;;;;6303589;28;20465;-60
2021/05/21 05:26:53;;;;;;;1.47;1.27;;;13.10;88.10;;;;;;6307744;28;20465;-60
2021/05/21 05:29:57;;;;;;;2.90;2.27;;;13.30;87.50;;;;;;6299281;28;20484;-59
2021/05/21 05:33:00;;;;;;;2.53;1.60;;;13.50;87.00;;;;;;6299262;28;20548;-59
2021/05/21 05:36:03;;;;;;;4.27;1.53;;;13.70;86.40;;;;;;6299081;28;20488;-60
2021/05/21 05:39:06;;;;;;;3.60;2.17;;;13.80;85.20;;;;;;6298802;28;20473;-61
2021/05/21 05:42:10;;;;;;;1.90;1.50;;;14.00;84.40;;;;;;6299149;28;20469;-60
2021/05/21 05:45:14;;;;;;;2.93;1.70;;;14.10;83.50;;;;;;6298960;28;20481;-61
2021/05/21 05:48:21;;;;;;;2.70;1.20;;;14.30;83.00;;;;;;6299090;28;20476;-60
2021/05/21 05:51:24;;;;;;;2.10;1.47;;;14.50;82.20;;;;;;6290354;28;20501;-60
2021/05/21 05:54:27;;;;;;;7.23;1.40;;;14.90;80.60;;;;;;6304015;28;20473;-61
2021/05/21 05:57:31;;;;;;;1.40;1.23;;;15.30;78.70;;;;;;6304025;28;20477;-60
2021/05/21 06:00:33;;;;;;;3.23;1.70;;;15.80;76.20;;;;;;6303790;28;20814;-61
2021/05/21 06:03:36;;;;;;;2.20;2.00;;;16.40;74.40;;;;;;6303708;28;20610;-61
2021/05/21 06:06:39;;;;;;;2.07;1.20;;;16.90;72.00;;;;;;6303498;28;20951;-61
2021/05/21 06:09:42;;;;;;;4.83;1.60;;;17.70;69.10;;;;;;6303662;28;20484;-61
2021/05/21 06:12:47;;;;;;;3.17;1.30;;;18.00;66.60;;;;;;6303705;28;20490;-61
2021/05/21 06:15:50;;;;;;;2.70;0.90;;;18.80;63.70;;;;;;6303244;28;20469;-61
2021/05/21 06:18:53;;;;;;;1.60;1.40;;;19.20;61.40;;;;;;6303546;28;20484;-61
2021/05/21 06:21:56;;;;;;;4.37;1.40;;;19.90;59.40;;;;;;6303255;28;20484;-60
2021/05/21 06:25:05;;;;;;;2.37;1.27;;;20.30;57.80;;;;;;6316384;28;20486;-61
2021/05/21 06:28:09;;;;;;;2.97;1.70;;;21.00;56.20;;;;;;6303035;28;20246;-61
2021/05/21 06:31:12;;;;;;;2.07;1.73;;;21.60;53.80;;;;;;6302915;28;20230;-61
2021/05/21 06:34:15;;;;;;;1.90;1.43;;;22.00;52.00;;;;;;6302857;28;20226;-60
2021/05/21 06:37:18;;;;;;;1.90;1.10;;;22.20;50.40;;;;;;6303063;28;20230;-59
2021/05/21 06:40:41;;;;;;;2.20;1.20;;;22.80;49.20;;;;;;6302709;28;20235;-59
2021/05/21 06:43:45;;;;;;;1.10;0.80;;;23.20;46.90;;;;;;6302778;28;20230;-59
2021/05/21 06:46:50;;;;;;;2.13;1.20;;;23.00;45.50;;;;;;6302509;28;20226;-59
2021/05/21 06:49:53;;;;;;;2.83;1.20;;;22.90;44.60;;;;;;6302800;28;20230;-60
2021/05/21 06:52:56;;;;;;;1.23;1.07;;;23.10;44.50;;;;;;6297904;28;20218;-60
2021/05/21 06:55:59;;;;;;;2.07;1.23;;;23.90;43.70;;;;;;6302563;28;20199;-60
2021/05/21 06:59:03;;;;;;;1.37;1.00;;;25.00;42.10;;;;;;6302439;28;20565;-60
2021/05/21 07:02:06;;;;;;;2.70;1.20;;;25.00;39.80;;;;;;6301043;28;20203;-61
2021/05/21 07:05:10;;;;;;;3.47;1.33;;;24.80;40.50;;;;;;6302385;28;20229;-61
2021/05/21 07:08:13;;;;;;;2.70;1.20;;;24.70;40.40;;;;;;6302235;28;20234;-60
2021/05/21 07:11:16;;;;;;;5.80;1.37;;;24.60;40.60;;;;;;6301541;28;20230;-60
2021/05/21 07:14:20;;;;;;;2.70;1.03;;;24.90;40.50;;;;;;6295384;28;20218;-61
2021/05/21 07:17:23;;;;;;;3.27;1.70;;;24.60;40.90;;;;;;6295869;28;20292;-62
2021/05/21 07:20:25;;;;;;;1.60;1.17;;;24.80;40.80;;;;;;6301625;28;20231;-64
2021/05/21 07:23:28;;;;;;;3.63;1.43;;;25.80;39.20;;;;;;6302505;28;20226;-63
2021/05/21 07:26:33;;;;;;;2.20;1.90;;;25.70;38.80;;;;;;6313560;28;20231;-61
2021/05/21 07:29:36;;;;;;;6.07;1.40;;;26.20;38.10;;;;;;6301116;28;20956;-66
2021/05/21 07:32:42;;;;;;;3.03;1.43;;;26.90;37.20;;;;;;6291193;28;20226;-61
2021/05/21 07:35:44;;;;;;;5.00;1.27;;;26.50;36.80;;;;;;6276273;28;20241;-63
2021/05/21 07:38:47;;;;;;;3.43;1.63;;;26.40;37.30;;;;;;6276371;28;20226;-66
2021/05/21 07:41:53;;;;;;;1.73;1.30;;;26.30;37.50;;;;;;6276201;28;20689;-62
2021/05/21 07:44:57;;;;;;;3.07;1.53;;;25.80;37.90;;;;;;6301200;28;20230;-62
2021/05/21 07:48:00;;;;;;;5.70;1.73;;;25.70;38.50;;;;;;6301499;28;20219;-60
2021/05/21 07:51:03;;;;;;;1.47;1.17;;;25.30;38.80;;;;;;6300759;28;20245;-61
2021/05/21 07:54:06;;;;;;;4.20;1.47;;;25.10;39.50;;;;;;6301315;28;20228;-60
2021/05/21 07:57:10;;;;;;;1.97;1.40;;;25.00;39.90;;;;;;6300668;28;20686;-60
2021/05/21 08:00:15;;;;;;;6.33;1.37;;;25.00;39.60;;;;;;6301317;28;20237;-61
2021/05/21 08:03:18;;;;;;;4.13;1.40;;;25.20;39.80;;;;;;6300575;28;20255;-60
2021/05/21 08:06:21;;;;;;;3.60;2.03;;;25.10;39.70;;;;;;6301548;28;20260;-62
2021/05/21 08:09:24;;;;;;;4.50;1.40;;;25.60;39.70;;;;;;6300687;28;20230;-60
2021/05/21 08:12:26;;;;;;;2.33;1.67;;;25.60;38.90;;;;;;6300325;28;20752;-61
2021/05/21 08:15:30;;;;;;;2.20;1.20;;;24.70;39.80;;;;;;6300359;28;20233;-61
2021/05/21 08:18:33;;;;;;;4.80;1.13;;;23.90;41.90;;;;;;6298808;28;20553;-61
2021/05/21 08:21:36;;;;;;;3.13;1.43;;;23.50;41.80;;;;;;6299946;28;20238;-61
2021/05/21 08:24:40;;;;;;;1.97;1.60;;;23.30;43.30;;;;;;6311321;28;20226;-60
2021/05/21 08:27:42;;;;;;;1.40;0.90;;;23.50;43.50;;;;;;6318538;28;20694;-61
2021/05/21 08:30:46;;;;;;;2.73;1.70;;;23.60;43.30;;;;;;6299644;28;20234;-61
2021/05/21 08:33:49;;;;;;;1.80;1.20;;;23.60;43.70;;;;;;6300340;28;20227;-61
2021/05/21 08:36:52;;;;;;;3.90;1.53;;;23.40;43.60;;;;;;6282430;28;20251;-61
2021/05/21 08:39:55;;;;;;;2.77;1.53;;;23.30;43.80;;;;;;6274994;28;20353;-60
2021/05/21 08:42:59;;;;;;;1.43;1.30;;;23.10;44.40;;;;;;6274729;28;20227;-61
2021/05/21 08:46:03;;;;;;;4.17;1.80;;;23.00;44.80;;;;;;6274959;28;20678;-61
2021/05/21 08:49:06;;;;;;;5.40;1.97;;;23.00;44.80;;;;;;6274832;28;20296;-61
2021/05/21 08:52:09;;;;;;;2.27;1.70;;;23.00;45.70;;;;;;6291931;28;20242;-61
2021/05/21 08:55:13;;;;;;;4.33;1.93;;;23.00;45.20;;;;;;6299084;28;20241;-61
2021/05/21 08:58:15;;;;;;;2.07;1.50;;;22.80;45.70;;;;;;6276640;28;20254;-60
2021/05/21 09:01:20;;;;;;;4.00;1.53;;;22.30;45.90;;;;;;6290231;28;20226;-60
2021/05/21 09:04:22;;;;;;;2.50;1.57;;;22.00;46.70;;;;;;6278154;28;20233;-61
2021/05/21 09:07:27;;;;;;;2.00;1.50;;;21.80;48.00;;;;;;6274800;28;20663;-61
2021/05/21 09:10:30;;;;;;;2.13;1.80;;;22.00;47.20;;;;;;6290320;28;20568;-61
2021/05/21 09:13:35;;;;;;;2.97;1.70;;;22.20;46.80;;;;;;6298834;28;20218;-60
2021/05/21 09:16:40;;;;;;;5.70;1.43;;;22.20;47.40;;;;;;6292391;28;20237;-60
2021/05/21 09:19:46;;;;;;;3.23;1.60;;;22.40;47.60;;;;;;6283567;28;20226;-59
2021/05/21 09:23:03;;;;;;;2.43;1.63;;;22.60;47.10;;;;;;6287542;28;20222;-60
2021/05/21 09:26:06;;;;;;;3.00;1.40;;;22.20;47.60;;;;;;6307062;28;20651;-60
2021/05/21 09:29:10;;;;;;;3.43;1.43;;;22.20;48.20;;;;;;6282116;28;20206;-59
2021/05/21 09:32:29;;;;;;;1.97;1.50;;;21.90;47.20;;;;;;6290072;28;20297;-62
2021/05/21 09:35:32;;;;;;;4.70;2.03;;;21.80;48.30;;;;;;6274466;28;20224;-60
2021/05/21 09:38:46;;;;;;;3.23;1.60;;;21.60;48.00;;;;;;6289695;28;20713;-61
2021/05/21 09:41:50;;;;;;;1.60;1.20;;;21.90;48.30;;;;;;6295225;28;20230;-60
2021/05/21 09:44:53;;;;;;;5.03;2.00;;;22.40;47.70;;;;;;6295931;28;20285;-60
2021/05/21 09:48:05;;;;;;;2.30;1.37;;;22.80;47.00;;;;;;6287353;28;20235;-60
2021/05/21 09:51:08;;;;;;;3.20;1.27;;;22.90;47.10;;;;;;6285729;28;20238;-60
2021/05/21 09:54:11;;;;;;;2.90;2.27;;;23.10;46.90;;;;;;6273570;28;20231;-61
2021/05/21 09:57:13;;;;;;;1.43;0.93;;;23.00;45.10;;;;;;6290305;28;20227;-61
2021/05/21 10:00:17;;;;;;;3.07;1.40;;;23.20;41.40;;;;;;6286823;28;20314;-60
2021/05/21 10:03:20;;;;;;;2.30;1.70;;;23.50;43.00;;;;;;6276494;28;20223;-61
2021/05/21 10:06:29;;;;;;;2.20;1.20;;;23.40;42.90;;;;;;6271513;28;20315;-62
2021/05/21 10:09:32;;;;;;;4.87;1.20;;;23.40;42.10;;;;;;6272529;28;20247;-60
2021/05/21 10:12:36;;;;;;;2.70;1.30;;;23.70;41.60;;;;;;6272350;28;20246;-60
2021/05/21 10:15:39;;;;;;;2.10;1.30;;;24.00;41.40;;;;;;6275982;28;20227;-60
2021/05/21 10:18:44;;;;;;;2.07;1.40;;;24.30;41.40;;;;;;6297686;28;20234;-61
2021/05/21 10:21:47;;;;;;;3.50;1.40;;;24.50;41.70;;;;;;6298641;28;20230;-61
2021/05/21 10:24:53;;;;;;;3.00;1.40;;;24.30;42.10;;;;;;6305226;28;20234;-60
2021/05/21 10:27:57;;;;;;;1.93;1.53;;;24.70;41.60;;;;;;6323505;28;20257;-60
2021/05/21 10:31:02;;;;;;;3.03;1.67;;;25.00;41.70;;;;;;6322692;28;20245;-61
2021/05/21 10:34:14;;;;;;;1.53;1.40;;;24.80;42.10;;;;;;6322668;28;20229;-61
2021/05/21 10:37:28;;;;;;;2.83;1.50;;;24.30;43.10;;;;;;6321945;28;20302;-61
2021/05/21 10:40:32;;;;;;;3.10;1.53;;;24.70;42.60;;;;;;6302475;28;20231;-61
2021/05/21 10:43:47;;;;;;;1.93;1.70;;;25.00;42.70;;;;;;6302677;28;20239;-61
2021/05/21 10:46:51;;;;;;;1.97;1.30;;;24.60;42.80;;;;;;6302422;28;20718;-59
2021/05/21 10:50:16;;;;;;;2.00;1.30;;;24.70;43.50;;;;;;6301321;28;20227;-59
2021/05/21 10:53:20;;;;;;;1.07;0.97;;;24.70;43.70;;;;;;6276860;28;20302;-59
2021/05/21 10:56:44;;;;;;;1.83;1.63;;;24.80;43.60;;;;;;6287715;28;20697;-60
2021/05/21 10:59:57;;;;;;;2.23;1.50;;;25.30;42.70;;;;;;6301574;28;20227;-59
2021/05/21 11:02:59;;;;;;;2.90;1.30;;;25.30;40.90;;;;;;6301318;28;20237;-59
2021/05/21 11:06:21;;;;;;;1.37;1.27;;;25.20;41.60;;;;;;6297725;28;20242;-59
2021/05/21 11:09:26;;;;;;;2.10;1.37;;;25.30;41.00;;;;;;6301468;28;20227;-59
2021/05/21 11:12:46;;;;;;;2.10;1.20;;;25.10;41.20;;;;;;6301782;28;20234;-61
2021/05/21 11:15:51;;;;;;;3.10;1.40;;;25.30;40.60;;;;;;6300928;28;20663;-60
2021/05/21 11:18:54;;;;;;;2.20;1.13;;;25.40;39.00;;;;;;6301582;28;20234;-61
2021/05/21 11:22:11;;;;;;;1.60;1.10;;;25.40;39.50;;;;;;6303022;28;20575;-61
2021/05/21 11:25:16;;;;;;;1.80;1.40;;;25.60;39.60;;;;;;6321157;28;20230;-61
2021/05/21 11:28:19;;;;;;;1.93;1.50;;;25.70;38.80;;;;;;6326689;28;20314;-61
2021/05/21 11:31:24;;;;;;;1.70;1.40;;;25.80;38.90;;;;;;6326403;28;20234;-61
2021/05/21 11:34:27;;;;;;;2.53;1.40;;;25.80;38.70;;;;;;6324299;28;20230;-61
2021/05/21 11:37:31;;;;;;;1.37;1.00;;;25.50;40.20;;;;;;6300505;28;20210;-61
2021/05/21 11:40:34;;;;;;;1.80;1.13;;;25.50;40.20;;;;;;6300782;28;20242;-65
2021/05/21 11:43:39;;;;;;;3.67;1.50;;;25.50;39.50;;;;;;6300787;28;20701;-61
2021/05/21 11:46:44;;;;;;;2.73;1.20;;;25.10;39.90;;;;;;6298934;28;20227;-60
2021/05/21 11:49:47;;;;;;;1.40;0.97;;;24.70;40.20;;;;;;6298838;28;20237;-62
2021/05/21 11:52:50;;;;;;;2.80;1.30;;;25.00;40.00;;;;;;6275786;28;20219;-61
2021/05/21 11:55:53;;;;;;;2.50;0.93;;;25.20;39.20;;;;;;6281510;28;20233;-61
2021/05/21 11:59:03;;;;;;;1.40;1.13;;;25.30;37.60;;;;;;6298742;28;20225;-60
2021/05/21 12:02:06;;;;;;;1.47;1.30;;;25.00;37.50;;;;;;6299411;28;20207;-60
2021/05/21 12:05:10;;;;;;;1.43;0.90;;;24.90;38.30;;;;;;6298624;28;20225;-60
2021/05/21 12:08:14;;;;;;;1.30;0.73;;;24.90;37.70;;;;;;6281380;28;20239;-59
2021/05/21 12:11:17;;;;;;;2.40;1.20;;;24.80;38.00;;;;;;6277328;28;20238;-59
2021/05/21 12:14:22;;;;;;;1.17;0.90;;;24.60;38.50;;;;;;6280056;28;20230;-59
2021/05/21 12:17:24;;;;;;;1.37;1.27;;;24.70;38.30;;;;;;6295746;28;20223;-60
2021/05/21 12:20:28;;;;;;;5.07;1.00;;;24.80;37.60;;;;;;6286690;28;20682;-60
2021/05/21 12:23:35;;;;;;;1.10;0.80;;;25.10;37.10;;;;;;6294944;28;20656;-60
2021/05/21 12:26:41;;;;;;;2.30;0.87;;;25.20;36.80;;;;;;6310215;28;20566;-60
2021/05/21 12:29:44;;;;;;;1.83;1.13;;;25.30;36.30;;;;;;6283072;28;20233;-61
2021/05/21 12:32:48;;;;;;;1.77;0.80;;;25.40;36.10;;;;;;6299887;28;20229;-59
2021/05/21 12:35:51;;;;;;;1.47;1.10;;;25.50;36.20;;;;;;6275388;28;20230;-59
2021/05/21 12:38:57;;;;;;;1.30;1.00;;;25.20;36.80;;;;;;6293740;28;20231;-59
2021/05/21 12:42:00;;;;;;;0.90;0.80;;;25.50;36.90;;;;;;6290385;28;20226;-59
2021/05/21 12:45:08;;;;;;;0.90;0.80;;;25.70;36.70;;;;;;6275197;28;20227;-59
2021/05/21 12:48:11;;;;;;;1.97;0.83;;;25.80;36.10;;;;;;6289409;28;20223;-59
2021/05/21 12:51:20;;;;;;;1.37;0.90;;;25.40;35.40;;;;;;6283344;28;20231;-59
2021/05/21 12:54:26;;;;;;;2.07;1.07;;;25.00;35.70;;;;;;6273657;28;20243;-60
2021/05/21 12:57:29;;;;;;;1.00;0.80;;;24.80;35.60;;;;;;6292845;28;20226;-59
2021/05/21 13:00:32;;;;;;;1.17;1.07;;;25.00;35.90;;;;;;6284031;28;20247;-59
2021/05/21 13:03:52;;;;;;;1.97;1.00;;;25.10;35.00;;;;;;6290486;28;20618;-59
2021/05/21 13:06:56;;;;;;;2.80;1.03;;;25.10;35.00;;;;;;6274231;28;20736;-59
2021/05/21 13:10:01;;;;;;;3.40;2.13;;;25.40;35.40;;;;;;6290590;28;20226;-59
2021/05/21 13:13:04;;;;;;;1.30;1.00;;;25.20;35.30;;;;;;6290578;28;20230;-59
2021/05/21 13:16:07;;;;;;;2.10;0.90;;;25.10;35.80;;;;;;6296692;28;20235;-59
2021/05/21 13:19:11;;;;;;;1.73;1.00;;;25.10;36.00;;;;;;6298107;28;20219;-59
2021/05/21 13:22:15;;;;;;;1.00;0.90;;;24.70;36.50;;;;;;6299542;28;20222;-60
2021/05/21 13:25:21;;;;;;;1.30;0.67;;;24.60;37.10;;;;;;6306939;28;20217;-63
2021/05/21 13:28:24;;;;;;;1.50;1.00;;;24.60;36.70;;;;;;6288091;28;20238;-63
2021/05/21 13:31:26;;;;;;;2.40;1.50;;;24.60;36.50;;;;;;6290045;28;20237;-62
2021/05/21 13:34:29;;;;;;;0.80;0.80;;;24.80;36.20;;;;;;6293825;28;20222;-59
2021/05/21 13:37:32;;;;;;;1.13;1.03;;;24.90;35.70;;;;;;6294012;28;20223;-59
2021/05/21 13:40:36;;;;;;;1.20;0.70;;;24.90;35.10;;;;;;6295561;28;20230;-59
2021/05/21 13:43:39;;;;;;;0.93;0.80;;;25.00;35.30;;;;;;6294873;28;20223;-59
2021/05/21 13:46:41;;;;;;;3.03;1.10;;;24.80;35.50;;;;;;6295643;28;20219;-59
2021/05/21 13:49:44;;;;;;;1.10;0.90;;;24.60;36.70;;;;;;6294589;28;20230;-59
2021/05/21 13:52:47;;;;;;;1.73;0.80;;;24.40;36.80;;;;;;6291673;28;20222;-59
2021/05/21 13:55:51;;;;;;;1.20;0.90;;;24.00;37.40;;;;;;6297880;28;20694;-59
2021/05/21 13:58:54;;;;;;;1.67;0.80;;;24.10;37.70;;;;;;6297978;28;20234;-60
2021/05/21 14:01:57;;;;;;;1.43;0.63;;;23.80;38.10;;;;;;6297928;28;20218;-60
2021/05/21 14:05:00;;;;;;;1.50;1.10;;;23.70;38.20;;;;;;6298500;28;20345;-59
2021/05/21 14:08:03;;;;;;;2.60;1.00;;;23.50;38.00;;;;;;6298163;28;20229;-59
2021/05/21 14:11:07;;;;;;;1.10;0.80;;;23.40;38.30;;;;;;6300306;28;20692;-59
2021/05/21 14:14:10;;;;;;;1.00;0.90;;;23.50;38.60;;;;;;6303014;28;20203;-59
2021/05/21 14:17:13;;;;;;;2.40;1.30;;;23.60;39.00;;;;;;6301394;28;20249;-59
2021/05/21 14:20:17;;;;;;;2.00;0.80;;;23.20;39.60;;;;;;6301490;28;20226;-59
2021/05/21 14:23:20;;;;;;;1.60;0.90;;;22.90;40.10;;;;;;6310204;28;20223;-59
2021/05/21 14:26:24;;;;;;;3.40;1.10;;;22.80;40.60;;;;;;6303168;28;20226;-59
2021/05/21 14:29:27;;;;;;;1.00;0.90;;;22.80;41.20;;;;;;6302656;28;20233;-60
2021/05/21 14:32:30;;;;;;;2.30;1.50;;;22.70;40.80;;;;;;6303259;28;20226;-60
2021/05/21 14:35:33;;;;;;;0.80;0.70;;;22.60;41.20;;;;;;6302771;28;20678;-64
2021/05/21 14:38:36;;;;;;;0.70;0.67;;;22.80;38.40;;;;;;6302681;28;20237;-59
2021/05/21 14:41:41;;;;;;;1.53;1.00;;;22.90;38.70;;;;;;6280922;28;20227;-61
2021/05/21 14:44:45;;;;;;;2.30;0.83;;;22.90;40.90;;;;;;6277722;28;20223;-59
2021/05/21 14:47:48;;;;;;;1.93;0.90;;;22.70;40.20;;;;;;6277579;28;20227;-60
2021/05/21 14:50:50;;;;;;;1.07;0.90;;;22.60;40.50;;;;;;6277160;28;20227;-59
2021/05/21 14:53:54;;;;;;;2.43;1.03;;;22.60;40.40;;;;;;6278093;28;20228;-60
2021/05/21 14:56:57;;;;;;;2.23;1.03;;;22.50;41.50;;;;;;6293281;28;20231;-60
2021/05/21 15:00:00;;;;;;;1.17;0.80;;;22.40;41.90;;;;;;6302463;28;20245;-59
2021/05/21 15:03:05;;;;;;;1.93;1.20;;;22.30;41.90;;;;;;6301976;28;20226;-60
2021/05/21 15:06:08;;;;;;;2.47;1.27;;;22.20;42.40;;;;;;6302349;28;20310;-61
2021/05/21 15:09:12;;;;;;;1.13;0.80;;;22.40;41.90;;;;;;6302130;28;20254;-61
2021/05/21 15:12:17;;;;;;;4.00;1.00;;;22.50;40.50;;;;;;6301946;28;20227;-60
2021/05/21 15:15:28;;;;;;;0.97;0.70;;;22.40;40.50;;;;;;6301892;28;20227;-60
2021/05/21 15:25:12;;;;;;;0.90;0.67;;;22.40;40.40;;;;;;6304833;28;20245;-60
2021/05/21 15:28:15;;;;;;;1.87;1.10;;;22.50;40.50;;;;;;6299694;28;20242;-59
2021/05/21 15:31:18;;;;;;;1.77;1.10;;;22.40;41.20;;;;;;6285154;28;20250;-59
2021/05/21 15:34:21;;;;;;;5.07;1.30;;;22.20;43.30;;;;;;6279913;28;20234;-59
2021/05/21 15:37:24;;;;;;;1.03;0.80;;;22.00;43.90;;;;;;6281175;28;20560;-60
2021/05/21 15:40:28;;;;;;;1.63;1.00;;;21.80;44.10;;;;;;6298701;28;20311;-61
2021/05/21 15:46:49;;;;;;;1.10;0.70;;;21.80;44.00;;;;;;6274028;28;20725;-60
2021/05/21 15:49:55;;;;;;;2.10;0.97;;;21.90;43.70;;;;;;6297322;28;20239;-61
2021/05/21 15:53:22;;;;;;;2.30;1.03;;;21.90;44.00;;;;;;6299185;28;20207;-62
2021/05/21 15:59:57;;;;;;;1.83;0.80;;;22.20;44.10;;;;;;6287671;28;20230;-62
2021/05/21 16:03:00;;;;;;;1.47;1.03;;;22.10;44.40;;;;;;6300875;28;20226;-62
2021/05/21 16:06:03;;;;;;;0.90;0.90;;;22.20;44.50;;;;;;6300329;28;20250;-61
2021/05/21 16:09:06;;;;;;;1.60;1.10;;;22.30;43.40;;;;;;6300521;28;20319;-61
2021/05/21 16:12:09;;;;;;;1.23;0.83;;;22.30;41.60;;;;;;6298900;28;20235;-62
2021/05/21 16:15:15;;;;;;;2.63;0.90;;;22.20;41.30;;;;;;6300655;28;20223;-61